Time;durP1;ratioP1;P1;durP2;ratioP2;P2;SDS_P1;SDS_P2;PMS_P1;PMS_P2;Temp;Humidity;BMP_temperature;BMP_pressure;BME280_temperature;BME280_humidity;BME280_pressure;Samples;Min_cycle;Max_cycle;Signal;HPM_P1;HPM_P2
2021/10/03 00:02:47;;;;;;;38.88;26.40;;;;;;;9.62;100.00;99077.29;2313659;75;20998;-85
2021/10/03 00:05:48;;;;;;;35.70;24.50;;;;;;;9.63;100.00;99076.30;2312590;77;21024;-85
2021/10/03 00:08:49;;;;;;;39.67;27.27;;;;;;;9.65;100.00;99079.56;2314032;75;20964;-85
2021/10/03 00:11:50;;;;;;;35.95;25.48;;;;;;;9.60;100.00;99072.69;2314942;77;21016;-84
2021/10/03 00:14:51;;;;;;;37.03;25.23;;;;;;;9.52;100.00;99071.41;2314926;77;21011;-85
2021/10/03 00:17:51;;;;;;;37.23;24.82;;;;;;;9.48;100.00;99066.98;2315064;77;20953;-85
2021/10/03 00:20:52;;;;;;;35.98;25.00;;;;;;;9.41;100.00;99065.51;2337013;75;20977;-84
2021/10/03 00:23:53;;;;;;;39.42;25.52;;;;;;;9.36;100.00;99065.69;2358965;75;20962;-84
2021/10/03 00:26:54;;;;;;;37.20;23.75;;;;;;;9.26;100.00;99070.26;2358729;75;21041;-85
2021/10/03 00:29:55;;;;;;;34.53;25.02;;;;;;;9.18;100.00;99074.16;2358763;75;21020;-83
2021/10/03 00:32:55;;;;;;;36.77;25.75;;;;;;;9.19;100.00;99082.33;2358956;75;20983;-85
2021/10/03 00:35:56;;;;;;;39.35;25.48;;;;;;;9.22;100.00;99089.83;2346019;75;20986;-85
2021/10/03 00:38:57;;;;;;;38.63;25.08;;;;;;;9.25;100.00;99085.61;2312345;77;21030;-85
2021/10/03 00:41:58;;;;;;;35.10;25.00;;;;;;;9.25;100.00;99086.92;2357148;74;21041;-84
2021/10/03 00:44:59;;;;;;;40.12;26.48;;;;;;;9.25;100.00;99093.45;2358366;75;21044;-85
2021/10/03 00:48:00;;;;;;;37.15;25.60;;;;;;;9.22;100.00;99097.67;2358629;75;20959;-84
2021/10/03 00:51:00;;;;;;;34.60;24.57;;;;;;;9.21;100.00;99096.05;2358565;75;21517;-84
2021/10/03 00:54:01;;;;;;;31.87;22.95;;;;;;;9.20;100.00;99093.11;2321285;75;20897;-84
2021/10/03 00:57:02;;;;;;;31.48;22.87;;;;;;;9.15;100.00;99085.77;2314845;77;21044;-84
2021/10/03 01:00:03;;;;;;;34.13;24.10;;;;;;;9.12;100.00;99087.37;2336973;75;21005;-84
2021/10/03 01:03:04;;;;;;;30.10;23.75;;;;;;;9.05;100.00;99081.15;2358823;75;21062;-84
2021/10/03 01:06:06;;;;;;;35.23;25.97;;;;;;;9.00;100.00;99081.65;2358728;75;20994;-84
2021/10/03 01:09:07;;;;;;;30.92;23.15;;;;;;;8.98;100.00;99081.48;2358517;75;21069;-84
2021/10/03 01:12:08;;;;;;;30.50;23.27;;;;;;;9.00;100.00;99080.83;2358672;75;21058;-85
2021/10/03 01:15:09;;;;;;;38.88;26.30;;;;;;;8.98;100.00;99082.30;2358644;75;20942;-84
2021/10/03 01:18:10;;;;;;;36.20;26.62;;;;;;;8.93;100.00;99075.91;2358646;75;21269;-84
2021/10/03 01:21:11;;;;;;;36.15;24.30;;;;;;;8.94;100.00;99075.75;2358528;75;21523;-84
2021/10/03 01:24:12;;;;;;;38.25;27.02;;;;;;;8.93;100.00;99068.08;2349249;75;20985;-84
2021/10/03 01:27:12;;;;;;;45.65;30.32;;;;;;;8.93;100.00;99068.89;2314484;77;21011;-85
2021/10/03 01:30:13;;;;;;;39.58;28.80;;;;;;;8.93;100.00;99063.67;2315079;75;20980;-85
2021/10/03 01:33:15;;;;;;;38.98;28.17;;;;;;;8.93;100.00;99064.98;2314789;77;21144;-84
2021/10/03 01:36:16;;;;;;;40.15;29.48;;;;;;;8.94;100.00;99062.69;2313688;77;21425;-84
2021/10/03 01:39:17;;;;;;;41.23;29.92;;;;;;;8.96;100.00;99059.91;2312459;77;20954;-85
2021/10/03 01:42:18;;;;;;;40.65;28.85;;;;;;;8.96;100.00;99059.45;2313293;77;21058;-82
2021/10/03 01:45:18;;;;;;;41.18;29.30;;;;;;;8.94;100.00;99056.16;2317526;77;20986;-84
2021/10/03 01:48:19;;;;;;;41.23;30.35;;;;;;;8.92;100.00;99047.67;2320489;77;20927;-83
2021/10/03 01:51:20;;;;;;;45.03;32.58;;;;;;;8.91;100.00;99047.35;2320333;77;21596;-83
2021/10/03 01:54:21;;;;;;;54.67;35.88;;;;;;;8.92;100.00;99044.25;2321076;77;20998;-82
2021/10/03 01:57:22;;;;;;;41.90;30.88;;;;;;;8.96;100.00;99038.56;2317837;76;20931;-84
2021/10/03 02:00:22;;;;;;;41.80;30.88;;;;;;;8.99;100.00;99040.02;2317088;77;21513;-84
2021/10/03 02:03:23;;;;;;;40.17;27.52;;;;;;;8.95;100.00;99035.59;2345336;76;20907;-84
2021/10/03 02:06:25;;;;;;;43.23;30.60;;;;;;;8.91;100.00;99034.30;2356699;76;20950;-83
2021/10/03 02:09:26;;;;;;;36.58;27.13;;;;;;;8.88;100.00;99030.71;2357675;76;20973;-84
2021/10/03 02:12:26;;;;;;;40.88;28.00;;;;;;;8.92;100.00;99028.58;2357692;76;21466;-83
2021/10/03 02:15:27;;;;;;;35.92;26.85;;;;;;;8.89;100.00;99023.69;2335563;76;20924;-84
2021/10/03 02:18:28;;;;;;;47.27;28.77;;;;;;;8.87;100.00;99029.53;2319234;76;21011;-84
2021/10/03 02:21:29;;;;;;;42.20;33.60;;;;;;;8.86;100.00;99022.69;2318562;77;21043;-84
2021/10/03 02:24:30;;;;;;;38.67;29.63;;;;;;;8.82;100.00;99015.19;2318436;77;21008;-84
2021/10/03 02:27:30;;;;;;;46.77;34.43;;;;;;;8.77;100.00;99014.83;2318576;77;21008;-84
2021/10/03 02:30:31;;;;;;;41.15;32.65;;;;;;;8.71;100.00;99018.11;2293003;77;21421;-84
2021/10/03 02:33:32;;;;;;;38.70;29.75;;;;;;;8.72;100.00;99018.92;2318905;77;21044;-84
2021/10/03 02:36:33;;;;;;;41.80;32.10;;;;;;;8.71;100.00;99016.80;2318798;77;20941;-85
2021/10/03 02:39:34;;;;;;;45.38;30.45;;;;;;;8.67;100.00;99017.27;2318878;77;21476;-84
2021/10/03 02:42:35;;;;;;;44.30;31.48;;;;;;;8.63;100.00;99015.47;2314936;77;21089;-84
2021/10/03 02:45:35;;;;;;;40.28;31.45;;;;;;;8.59;100.00;99018.55;2301336;77;20989;-83
2021/10/03 02:48:36;;;;;;;33.08;25.68;;;;;;;8.63;100.00;99022.48;2301372;77;21069;-83
2021/10/03 02:51:37;;;;;;;41.45;28.45;;;;;;;8.62;100.00;99010.42;2301084;77;21086;-84
2021/10/03 02:54:38;;;;;;;44.35;31.70;;;;;;;8.57;100.00;99008.27;2300602;77;21133;-83
2021/10/03 02:57:39;;;;;;;43.60;33.45;;;;;;;8.53;100.00;99000.45;2271046;77;21117;-83
2021/10/03 03:00:40;;;;;;;39.63;31.12;;;;;;;8.51;100.00;99000.61;2260263;77;20926;-83
2021/10/03 03:03:41;;;;;;;35.68;26.37;;;;;;;8.49;100.00;98992.59;2262911;77;21037;-83
2021/10/03 03:06:41;;;;;;;33.30;24.07;;;;;;;8.49;100.00;98992.59;2301410;77;20947;-82
2021/10/03 03:09:42;;;;;;;40.70;32.00;;;;;;;8.42;100.00;98984.60;2299570;77;21033;-84
2021/10/03 03:12:43;;;;;;;41.13;30.80;;;;;;;8.39;100.00;98980.98;2299132;77;21014;-83
2021/10/03 03:15:46;;;;;;;33.33;22.60;;;;;;;8.37;100.00;98989.95;2299202;77;20904;-83
2021/10/03 03:18:46;;;;;;;28.90;21.75;;;;;;;8.36;100.00;98999.58;2299218;77;21063;-83
2021/10/03 03:21:47;;;;;;;27.70;20.70;;;;;;;8.39;100.00;98998.44;2299186;77;20998;-84
2021/10/03 03:24:48;;;;;;;26.37;19.15;;;;;;;8.39;100.00;98994.03;2299303;77;20989;-83
2021/10/03 03:27:49;;;;;;;27.95;19.30;;;;;;;8.38;100.00;99000.72;2299141;77;21476;-84
2021/10/03 03:30:50;;;;;;;28.32;20.37;;;;;;;8.35;100.00;98997.95;2299092;77;20963;-84
2021/10/03 03:33:50;;;;;;;31.55;22.05;;;;;;;8.34;100.00;98999.38;2300394;77;21014;-83
2021/10/03 03:36:51;;;;;;;29.55;21.80;;;;;;;8.33;100.00;98995.95;2301198;77;21543;-83
2021/10/03 03:39:52;;;;;;;28.15;20.20;;;;;;;8.35;100.00;98996.64;2301258;77;21030;-83
2021/10/03 03:42:53;;;;;;;27.25;20.92;;;;;;;8.36;100.00;98996.97;2301306;77;21074;-83
2021/10/03 03:45:54;;;;;;;29.45;21.75;;;;;;;8.35;100.00;99006.27;2299095;77;20990;-83
2021/10/03 03:48:55;;;;;;;31.27;22.80;;;;;;;8.36;100.00;99003.48;2298853;77;21128;-84
2021/10/03 03:51:55;;;;;;;27.98;21.02;;;;;;;8.34;100.00;99001.50;2299148;77;20971;-84
2021/10/03 03:54:56;;;;;;;28.87;20.65;;;;;;;8.34;100.00;99008.02;2299055;77;21043;-84
2021/10/03 03:57:57;;;;;;;23.22;18.82;;;;;;;8.33;100.00;99014.22;2298926;77;20990;-84
2021/10/03 04:00:58;;;;;;;26.73;19.30;;;;;;;8.33;100.00;99017.31;2299169;77;21058;-84
2021/10/03 04:03:59;;;;;;;23.67;18.57;;;;;;;8.27;100.00;99010.44;2299290;77;21002;-83
2021/10/03 04:07:00;;;;;;;26.87;19.80;;;;;;;8.24;100.00;99010.77;2301263;77;21474;-83
2021/10/03 04:10:01;;;;;;;29.40;20.02;;;;;;;8.20;100.00;99015.13;2301717;77;21021;-83
2021/10/03 04:13:01;;;;;;;25.60;18.95;;;;;;;8.16;100.00;99011.22;2301636;77;20947;-84
2021/10/03 04:16:02;;;;;;;37.28;27.25;;;;;;;8.12;100.00;99012.00;2301699;77;21528;-83
2021/10/03 04:19:03;;;;;;;47.90;36.38;;;;;;;8.05;100.00;99005.80;2301441;77;20950;-83
2021/10/03 04:22:04;;;;;;;37.95;29.98;;;;;;;8.02;100.00;99009.18;2301562;77;22096;-83
2021/10/03 04:25:05;;;;;;;36.73;28.65;;;;;;;7.95;100.00;99005.06;2301481;77;20981;-84
2021/10/03 04:28:05;;;;;;;36.70;28.75;;;;;;;7.95;100.00;99005.06;2301384;77;21457;-82
2021/10/03 04:31:06;;;;;;;32.50;26.93;;;;;;;7.99;100.00;99008.53;2301656;77;21020;-83
2021/10/03 04:34:08;;;;;;;34.75;24.75;;;;;;;7.96;100.00;99004.94;2301256;77;20942;-83
2021/10/03 04:37:09;;;;;;;37.48;28.65;;;;;;;7.93;100.00;99010.44;2300728;77;20989;-83
2021/10/03 04:40:10;;;;;;;36.28;25.95;;;;;;;7.92;100.00;99011.42;2299200;77;21054;-83
2021/10/03 04:43:11;;;;;;;31.73;22.15;;;;;;;7.93;100.00;99005.72;2302786;77;21153;-83
2021/10/03 04:46:12;;;;;;;33.53;22.62;;;;;;;7.91;100.00;99008.97;2318556;76;20974;-83
2021/10/03 04:49:12;;;;;;;33.88;26.48;;;;;;;7.91;100.00;99007.66;2318852;77;21555;-83
2021/10/03 04:52:13;;;;;;;40.88;29.18;;;;;;;7.91;100.00;99007.66;2319042;77;20948;-83
2021/10/03 04:55:14;;;;;;;44.03;31.40;;;;;;;7.90;100.00;99006.85;2318510;77;21558;-82
2021/10/03 04:58:15;;;;;;;38.17;30.65;;;;;;;7.91;100.00;99004.57;2319217;77;21035;-83
2021/10/03 05:01:17;;;;;;;45.70;34.35;;;;;;;7.91;100.00;99000.66;2330071;76;20890;-84
2021/10/03 05:04:18;;;;;;;42.83;32.13;;;;;;;7.87;100.00;98990.22;2319344;77;21028;-84
2021/10/03 05:07:19;;;;;;;40.83;31.48;;;;;;;7.83;100.00;98990.67;2318876;77;21029;-84
2021/10/03 05:10:20;;;;;;;41.60;31.02;;;;;;;7.86;100.00;98989.90;2318761;77;20961;-84
2021/10/03 05:13:21;;;;;;;27.93;21.70;;;;;;;7.93;100.00;98983.06;2318704;77;21000;-84
2021/10/03 05:16:22;;;;;;;28.15;19.65;;;;;;;8.01;100.00;98998.42;2318781;76;20977;-86
2021/10/03 05:19:22;;;;;;;28.23;19.90;;;;;;;8.09;100.00;98999.77;2320956;76;20956;-90
2021/10/03 05:22:24;;;;;;;25.68;17.98;;;;;;;8.13;100.00;98999.77;2311190;76;21013;-91
2021/10/03 05:25:25;;;;;;;25.08;18.37;;;;;;;8.16;100.00;98993.77;2312303;77;20981;-90
2021/10/03 05:28:26;;;;;;;23.00;17.05;;;;;;;8.23;100.00;98994.78;2312089;77;21015;-91
2021/10/03 05:31:26;;;;;;;23.70;18.42;;;;;;;8.31;100.00;98994.45;2312175;77;21456;-90
2021/10/03 05:34:27;;;;;;;24.02;18.73;;;;;;;8.36;100.00;98991.75;2311913;77;20962;-90
2021/10/03 05:37:28;;;;;;;21.33;16.82;;;;;;;8.41;100.00;98988.19;2312032;77;20962;-86
2021/10/03 05:40:29;;;;;;;21.85;17.15;;;;;;;8.47;100.00;98986.72;2311835;77;21409;-84
2021/10/03 05:43:30;;;;;;;21.90;16.75;;;;;;;8.53;100.00;98984.78;2311583;77;20982;-83
2021/10/03 05:46:30;;;;;;;20.60;17.48;;;;;;;8.60;100.00;98991.50;2311409;77;21066;-88
2021/10/03 05:49:31;;;;;;;26.42;18.77;;;;;;;8.65;100.00;98992.63;2311016;77;20918;-85
2021/10/03 05:52:32;;;;;;;24.57;18.62;;;;;;;8.75;100.00;98993.79;2311669;77;21528;-86
2021/10/03 05:55:33;;;;;;;22.95;17.32;;;;;;;8.86;100.00;98996.58;2311617;77;21541;-84
2021/10/03 05:58:34;;;;;;;22.42;15.98;;;;;;;8.99;100.00;98987.30;2311577;77;20962;-81
2021/10/03 06:01:35;;;;;;;18.70;15.43;;;;;;;9.09;100.00;98992.36;2311377;77;21069;-82
2021/10/03 06:04:36;;;;;;;17.85;15.53;;;;;;;9.25;100.00;98987.63;2311482;77;21021;-82
2021/10/03 06:07:37;;;;;;;19.40;17.20;;;;;;;9.47;100.00;98990.86;2311340;77;21565;-84
2021/10/03 06:10:38;;;;;;;23.10;16.35;;;;;;;9.65;100.00;98990.17;2311474;77;20965;-85
2021/10/03 06:13:40;;;;;;;21.37;16.67;;;;;;;9.80;100.00;98987.70;2311234;77;21036;-86
2021/10/03 06:16:42;;;;;;;20.02;16.23;;;;;;;9.91;100.00;98990.45;2311720;77;21057;-82
2021/10/03 06:19:43;;;;;;;20.97;16.75;;;;;;;10.00;100.00;98989.92;2311680;77;20974;-85
2021/10/03 06:22:45;;;;;;;17.12;14.13;;;;;;;10.18;100.00;98994.44;2311691;77;21020;-85
2021/10/03 06:25:46;;;;;;;19.48;15.38;;;;;;;10.30;100.00;98997.02;2311539;77;21260;-81
2021/10/03 06:28:47;;;;;;;17.67;14.68;;;;;;;10.43;100.00;98988.14;2311918;77;21560;-83
2021/10/03 06:31:48;;;;;;;20.40;15.20;;;;;;;10.57;100.00;98996.23;2312038;77;20988;-94
2021/10/03 06:34:49;;;;;;;18.80;14.98;;;;;;;10.75;100.00;98990.23;2311360;77;21031;-81
2021/10/03 06:37:50;;;;;;;18.55;14.70;;;;;;;10.88;100.00;98993.11;2311573;77;20914;-83
2021/10/03 06:40:50;;;;;;;18.30;14.50;;;;;;;10.95;100.00;98986.16;2311323;77;21065;-84
2021/10/03 06:43:54;;;;;;;15.38;13.38;;;;;;;10.85;100.00;98988.69;2311843;77;20982;-84
2021/10/03 06:46:54;;;;;;;16.32;13.75;;;;;;;10.75;100.00;98980.57;2310440;77;21005;-84
2021/10/03 06:49:55;;;;;;;17.30;14.73;;;;;;;10.69;100.00;98983.88;2311010;77;21057;-85
2021/10/03 06:52:56;;;;;;;16.67;14.93;;;;;;;10.71;100.00;98987.16;2310899;77;21422;-82
2021/10/03 06:55:56;;;;;;;20.40;16.75;;;;;;;10.77;100.00;98988.25;2310757;77;20989;-83
2021/10/03 06:58:57;;;;;;;19.25;16.02;;;;;;;10.72;100.00;98990.09;2310539;77;21248;-83
2021/10/03 07:01:58;;;;;;;20.43;16.48;;;;;;;10.71;100.00;98987.66;2310639;77;21029;-85
2021/10/03 07:04:59;;;;;;;23.73;18.87;;;;;;;10.74;100.00;98978.13;2310715;77;21019;-88
2021/10/03 07:08:00;;;;;;;24.75;20.62;;;;;;;10.74;100.00;98975.02;2310519;77;21504;-83
2021/10/03 07:11:01;;;;;;;27.93;24.95;;;;;;;10.79;100.00;98988.91;2310558;77;21016;-79
2021/10/03 07:14:02;;;;;;;23.38;19.15;;;;;;;10.81;100.00;98990.36;2310576;77;21014;-82
2021/10/03 07:17:03;;;;;;;21.40;17.95;;;;;;;10.71;100.00;98989.78;2311022;77;20990;-83
2021/10/03 07:20:03;;;;;;;24.67;20.48;;;;;;;10.70;100.00;98988.64;2311490;77;21010;-84
2021/10/03 07:23:05;;;;;;;28.02;23.73;;;;;;;10.72;100.00;98989.28;2311506;77;20957;-82
2021/10/03 07:26:07;;;;;;;23.67;19.55;;;;;;;10.67;100.00;98988.97;2311669;77;20989;-84
2021/10/03 07:29:08;;;;;;;22.73;20.30;;;;;;;10.71;100.00;98991.09;2311552;77;20990;-83
2021/10/03 07:32:09;;;;;;;18.25;16.37;;;;;;;10.77;100.00;98985.13;2310765;77;21020;-84
2021/10/03 07:35:11;;;;;;;16.40;14.05;;;;;;;11.03;100.00;98991.34;2310624;77;21022;-82
2021/10/03 07:38:11;;;;;;;19.12;15.50;;;;;;;11.20;100.00;98997.77;2311064;77;20966;-82
2021/10/03 07:41:16;;;;;;;17.00;15.20;;;;;;;11.27;100.00;98994.77;2310947;77;20949;-81
2021/10/03 07:44:15;;;;;;;16.12;13.75;;;;;;;11.35;100.00;98993.39;2310500;77;21492;-85
2021/10/03 07:47:16;;;;;;;18.70;15.68;;;;;;;11.44;100.00;98996.75;2311437;77;21001;-85
2021/10/03 07:50:17;;;;;;;18.87;16.75;;;;;;;11.53;100.00;98990.44;2311634;77;21061;-81
2021/10/03 07:53:18;;;;;;;17.82;15.25;;;;;;;11.60;100.00;98987.40;2311273;77;21040;-83
2021/10/03 07:56:19;;;;;;;22.10;17.57;;;;;;;11.69;100.00;98992.88;2311868;77;21013;-82
2021/10/03 07:59:20;;;;;;;22.50;17.32;;;;;;;11.74;100.00;98997.60;2311542;77;20927;-82
2021/10/03 08:02:21;;;;;;;25.05;20.17;;;;;;;11.76;100.00;98988.55;2312339;77;21414;-82
2021/10/03 08:05:21;;;;;;;29.10;23.92;;;;;;;11.76;100.00;98995.11;2312069;77;20947;-83
2021/10/03 08:08:22;;;;;;;28.05;22.93;;;;;;;11.74;100.00;98993.67;2312189;77;21061;-85
2021/10/03 08:11:23;;;;;;;19.85;17.73;;;;;;;11.72;100.00;98991.23;2311472;77;20993;-82
2021/10/03 08:14:24;;;;;;;23.40;19.57;;;;;;;11.82;100.00;98987.05;2311684;77;20984;-83
2021/10/03 08:17:25;;;;;;;22.10;17.55;;;;;;;11.89;100.00;98989.28;2311589;77;20978;-84
2021/10/03 08:20:26;;;;;;;20.25;16.45;;;;;;;11.93;100.00;98987.91;2310876;77;20942;-84
2021/10/03 08:23:30;;;;;;;21.55;18.40;;;;;;;11.91;100.00;98991.22;2310813;77;20986;-83
2021/10/03 08:26:30;;;;;;;20.32;17.65;;;;;;;11.86;100.00;98986.50;2310435;77;21031;-83
2021/10/03 08:29:32;;;;;;;23.62;18.48;;;;;;;11.87;100.00;98989.94;2310419;77;21025;-90
2021/10/03 08:32:33;;;;;;;20.80;18.55;;;;;;;11.91;100.00;98998.59;2310933;77;21520;-78
2021/10/03 08:35:34;;;;;;;22.52;18.60;;;;;;;11.93;100.00;98992.66;2310294;77;21105;-82
2021/10/03 08:38:35;;;;;;;22.82;18.00;;;;;;;11.99;100.00;98992.44;2310957;77;20974;-82
2021/10/03 08:41:36;;;;;;;21.65;16.60;;;;;;;12.10;100.00;98991.98;2310687;77;20950;-82
2021/10/03 08:44:39;;;;;;;25.35;20.50;;;;;;;12.20;100.00;98998.25;2310706;77;21028;-82
2021/10/03 08:47:41;;;;;;;28.27;20.97;;;;;;;12.23;100.00;98986.87;2310483;77;21489;-82
2021/10/03 08:50:42;;;;;;;25.10;19.92;;;;;;;12.28;100.00;98988.16;2310401;77;21522;-87
2021/10/03 08:53:44;;;;;;;22.27;18.52;;;;;;;12.59;100.00;98977.39;2163510;82;21255;-85
2021/10/03 08:56:45;;;;;;;22.20;19.10;;;;;;;12.59;100.00;98977.39;2164355;82;21101;-87
2021/10/03 08:59:46;;;;;;;22.10;18.75;;;;;;;12.67;100.00;98980.72;2164495;82;22142;-87
2021/10/03 09:02:47;;;;;;;24.45;20.37;;;;;;;12.87;100.00;98971.72;2164196;82;21108;-86
2021/10/03 09:05:48;;;;;;;24.02;18.67;;;;;;;12.91;100.00;98967.73;2164383;82;20979;-85
2021/10/03 09:08:52;;;;;;;23.80;19.05;;;;;;;12.95;100.00;98966.33;2164142;82;21066;-87
2021/10/03 09:11:51;;;;;;;23.35;20.05;;;;;;;13.04;100.00;98968.33;2163861;82;21019;-88
2021/10/03 09:14:52;;;;;;;26.65;21.48;;;;;;;13.13;100.00;98962.45;2165254;82;21030;-85
2021/10/03 09:17:53;;;;;;;24.30;18.90;;;;;;;13.23;100.00;98974.29;2164200;82;21046;-85
2021/10/03 09:20:54;;;;;;;30.43;23.67;;;;;;;13.33;100.00;98973.96;2164204;82;21015;-83
2021/10/03 09:23:55;;;;;;;26.30;22.37;;;;;;;13.39;100.00;98970.58;2164457;82;21058;-85
2021/10/03 09:27:00;;;;;;;29.52;20.40;;;;;;;13.51;100.00;98964.28;2164685;82;20983;-86
2021/10/03 09:29:58;;;;;;;22.02;17.70;;;;;;;13.62;100.00;98962.42;2163821;82;21114;-86
2021/10/03 09:32:59;;;;;;;21.37;17.40;;;;;;;13.89;100.00;98949.72;2164275;82;20994;-88
2021/10/03 09:36:00;;;;;;;22.42;18.95;;;;;;;13.89;100.00;98949.72;2164332;82;20971;-88
2021/10/03 09:39:01;;;;;;;20.90;16.35;;;;;;;14.01;100.00;98957.91;2164319;82;21593;-85
2021/10/03 09:42:02;;;;;;;20.65;16.15;;;;;;;14.12;100.00;98954.70;2164325;82;21078;-85
2021/10/03 09:45:02;;;;;;;20.20;16.02;;;;;;;14.24;100.00;98946.54;2159510;82;21059;-86
2021/10/03 09:48:03;;;;;;;17.15;15.13;;;;;;;14.37;100.00;98940.52;2153098;83;21553;-88
2021/10/03 09:51:04;;;;;;;18.07;16.17;;;;;;;14.45;100.00;98931.16;2259298;78;20996;-84
2021/10/03 09:54:05;;;;;;;24.67;18.10;;;;;;;14.57;100.00;98926.11;2289243;78;21011;-87
2021/10/03 09:57:15;;;;;;;23.10;15.18;;;;;;;14.69;100.00;98916.59;2289289;78;20961;-83
2021/10/03 10:00:13;;;;;;;22.45;16.12;;;;;;;14.96;100.00;98915.30;2220521;80;21091;-85
2021/10/03 10:03:14;;;;;;;17.67;15.50;;;;;;;15.14;100.00;98910.73;2222259;80;21477;-85
2021/10/03 10:06:15;;;;;;;24.50;15.72;;;;;;;15.19;100.00;98910.44;2222211;80;21166;-87
2021/10/03 10:09:16;;;;;;;16.35;14.13;;;;;;;15.35;100.00;98913.14;2222665;80;21651;-85
2021/10/03 10:12:17;;;;;;;16.12;12.37;;;;;;;15.54;100.00;98924.16;2222484;80;20993;-84
2021/10/03 10:15:18;;;;;;;16.87;12.43;;;;;;;15.68;100.00;98916.27;2223171;80;21020;-87
2021/10/03 10:18:19;;;;;;;12.28;11.08;;;;;;;15.83;100.00;98912.88;2223300;80;20997;-86
2021/10/03 10:21:20;;;;;;;14.93;12.68;;;;;;;15.99;100.00;98915.03;2224247;80;20994;-88
2021/10/03 10:24:21;;;;;;;14.63;12.50;;;;;;;16.15;100.00;98919.84;2223086;80;21067;-85
2021/10/03 10:27:24;;;;;;;13.22;11.43;;;;;;;16.37;100.00;98919.04;2223241;80;20990;-87
2021/10/03 10:30:25;;;;;;;14.43;11.70;;;;;;;16.54;100.00;98914.03;2196885;80;21718;-82
2021/10/03 10:33:26;;;;;;;14.20;11.28;;;;;;;16.62;100.00;98910.34;2222362;80;21080;-81
2021/10/03 10:36:28;;;;;;;11.97;10.75;;;;;;;16.56;100.00;98905.41;2222259;80;21488;-81
2021/10/03 10:39:29;;;;;;;13.48;11.97;;;;;;;16.50;100.00;98911.53;2222234;80;21552;-81
2021/10/03 10:42:29;;;;;;;13.85;11.33;;;;;;;16.42;100.00;98901.21;2222334;80;20981;-82
2021/10/03 10:45:31;;;;;;;12.53;11.33;;;;;;;16.45;100.00;98902.91;2216753;80;21128;-81
2021/10/03 10:48:31;;;;;;;12.70;11.35;;;;;;;16.49;100.00;98902.80;2212261;80;21073;-81
2021/10/03 10:51:32;;;;;;;16.30;11.60;;;;;;;16.50;100.00;98899.12;2212573;80;21572;-81
2021/10/03 10:54:33;;;;;;;11.83;10.63;;;;;;;16.55;100.00;98898.50;2212273;80;20978;-81
2021/10/03 10:57:34;;;;;;;13.18;11.12;;;;;;;16.59;98.60;98897.55;2290504;77;21525;-81
2021/10/03 11:00:35;;;;;;;13.22;9.75;;;;;;;16.65;99.93;98889.59;2306447;77;20946;-81
2021/10/03 11:03:36;;;;;;;12.10;10.48;;;;;;;16.75;99.88;98894.43;2306518;77;20985;-81
2021/10/03 11:06:37;;;;;;;11.78;10.58;;;;;;;16.78;97.07;98898.77;2306587;77;21029;-86
2021/10/03 11:09:38;;;;;;;11.43;10.25;;;;;;;16.87;99.41;98889.25;2306923;77;21042;-85
2021/10/03 11:12:41;;;;;;;12.25;10.95;;;;;;;16.93;97.73;98885.75;2307669;77;20970;-83
2021/10/03 11:15:42;;;;;;;10.40;9.10;;;;;;;16.92;95.47;98886.27;2307879;77;21273;-80
2021/10/03 11:18:43;;;;;;;12.00;9.48;;;;;;;16.98;97.54;98887.22;2307587;77;20978;-83
2021/10/03 11:21:45;;;;;;;12.78;10.68;;;;;;;16.98;94.58;98876.12;2307742;77;21002;-84
2021/10/03 11:24:48;;;;;;;10.48;9.33;;;;;;;16.96;95.43;98871.56;2276824;77;21037;-84
2021/10/03 11:27:49;;;;;;;10.38;8.85;;;;;;;16.96;96.10;98874.73;2306782;77;21541;-83
2021/10/03 11:30:53;;;;;;;11.55;9.73;;;;;;;16.96;96.17;98875.53;2306631;77;20955;-82
2021/10/03 11:33:53;;;;;;;12.55;9.65;;;;;;;16.98;96.85;98861.57;2306477;77;21552;-86
2021/10/03 11:36:54;;;;;;;11.80;10.53;;;;;;;16.99;95.38;98869.00;2306998;77;20950;-87
2021/10/03 11:39:55;;;;;;;11.00;9.88;;;;;;;16.94;94.11;98867.02;2307276;77;21049;-87
2021/10/03 11:42:57;;;;;;;10.88;9.85;;;;;;;16.92;93.24;98861.14;2306923;77;21065;-87
2021/10/03 11:45:58;;;;;;;9.48;8.28;;;;;;;16.90;92.19;98861.03;2307593;77;22085;-91
2021/10/03 11:48:59;;;;;;;11.90;10.15;;;;;;;16.90;92.19;98861.03;2307290;77;21028;-83
2021/10/03 11:52:04;;;;;;;9.93;8.88;;;;;;;16.91;93.50;98862.66;2277134;77;20955;-86
2021/10/03 11:55:07;;;;;;;13.18;9.93;;;;;;;16.90;90.01;98865.81;2308122;77;21011;-82
2021/10/03 11:58:07;;;;;;;11.85;9.15;;;;;;;16.94;88.11;98855.63;2308332;77;21512;-87
2021/10/03 12:01:07;;;;;;;11.10;9.38;;;;;;;16.97;89.54;98855.99;2308452;77;21009;-84
2021/10/03 12:04:08;;;;;;;10.38;9.03;;;;;;;17.00;89.71;98854.22;2307727;77;21072;-84
2021/10/03 12:07:09;;;;;;;9.43;8.25;;;;;;;17.05;89.87;98849.11;2307021;77;20969;-81
2021/10/03 12:10:12;;;;;;;9.50;8.60;;;;;;;17.13;88.10;98841.41;2193038;81;21046;-85
2021/10/03 12:13:13;;;;;;;10.48;8.38;;;;;;;17.22;88.74;98845.39;2193927;81;21013;-84
2021/10/03 12:16:17;;;;;;;10.43;8.88;;;;;;;17.27;89.27;98844.71;2194122;81;20955;-87
2021/10/03 12:19:19;;;;;;;10.53;8.45;;;;;;;17.37;89.34;98845.53;2194061;81;20966;-86
2021/10/03 12:22:22;;;;;;;10.75;7.85;;;;;;;17.45;88.48;98842.59;2193323;81;21538;-84
2021/10/03 12:25:23;;;;;;;8.40;7.40;;;;;;;17.47;87.87;98836.08;2193526;81;21086;-83
2021/10/03 12:28:24;;;;;;;13.48;7.95;;;;;;;17.51;84.70;98827.16;2193686;81;20959;-89
2021/10/03 12:31:28;;;;;;;12.60;8.43;;;;;;;17.56;85.71;98826.00;2193789;81;21058;-84
2021/10/03 12:34:29;;;;;;;8.43;7.55;;;;;;;17.70;88.35;98816.07;2193519;81;21006;-87
2021/10/03 12:37:32;;;;;;;9.40;8.35;;;;;;;17.81;85.07;98815.31;2193765;81;21581;-82
2021/10/03 12:40:33;;;;;;;10.50;7.80;;;;;;;17.92;86.71;98821.17;2193512;81;21018;-84
2021/10/03 12:43:36;;;;;;;11.60;8.03;;;;;;;17.97;85.75;98813.89;2193452;81;21003;-81
2021/10/03 12:46:37;;;;;;;8.85;7.75;;;;;;;17.96;82.22;98810.95;2193607;81;21662;-83
2021/10/03 12:49:40;;;;;;;9.13;8.30;;;;;;;18.06;84.06;98809.89;2194160;81;20967;-84
2021/10/03 12:52:41;;;;;;;10.15;7.78;;;;;;;18.10;81.87;98799.92;2196853;81;20983;-83
2021/10/03 12:56:00;;;;;;;;;;;;;;;;;;;;;
2021/10/03 12:58:58;;;;;;;8.50;7.75;;;;;;;18.28;83.53;98818.13;2185518;81;21106;-82
2021/10/03 13:01:59;;;;;;;7.95;7.20;;;;;;;18.38;82.37;98810.45;2197622;81;21066;-80
2021/10/03 13:05:09;;;;;;;9.40;8.20;;;;;;;18.45;82.70;98815.12;2195368;81;21055;-84
2021/10/03 13:08:04;;;;;;;8.30;7.50;;;;;;;18.54;82.69;98819.05;2305376;77;21002;-81
2021/10/03 13:11:08;;;;;;;7.87;7.08;;;;;;;18.60;81.84;98809.39;2310710;77;20914;-80
2021/10/03 13:14:08;;;;;;;7.03;6.40;;;;;;;18.61;80.04;98810.48;2310644;77;21173;-81
2021/10/03 13:20:12;;;;;;;6.80;6.22;;;;;;;18.66;77.22;98806.66;2220308;80;20996;-81
2021/10/03 13:23:13;;;;;;;7.90;7.12;;;;;;;18.73;79.40;98807.34;2220653;80;21397;-86
2021/10/03 13:26:14;;;;;;;6.85;6.25;;;;;;;18.88;79.39;98808.22;2218799;80;20995;-86
2021/10/03 13:29:15;;;;;;;12.13;6.45;;;;;;;18.94;77.18;98808.64;2218612;80;20984;-85
2021/10/03 13:32:18;;;;;;;6.62;6.03;;;;;;;18.90;77.12;98799.51;2218784;80;21016;-87
2021/10/03 13:35:18;;;;;;;10.15;7.10;;;;;;;18.83;73.22;98795.34;2219107;80;20985;-85
2021/10/03 13:38:19;;;;;;;7.20;6.50;;;;;;;18.77;75.31;98794.97;2218891;80;20980;-87
2021/10/03 13:41:20;;;;;;;7.60;6.33;;;;;;;18.77;74.82;98794.45;2219545;80;20977;-87
2021/10/03 13:44:21;;;;;;;10.58;6.85;;;;;;;18.80;76.03;98781.23;2221024;80;20941;-85
2021/10/03 13:47:24;;;;;;;9.78;5.92;;;;;;;18.78;75.16;98779.34;2230398;80;20997;-88
2021/10/03 13:50:24;;;;;;;7.70;6.15;;;;;;;18.76;74.09;98776.92;2230643;80;21034;-89
2021/10/03 13:53:29;;;;;;;11.60;7.37;;;;;;;18.76;75.40;98771.62;2229410;80;21003;-88
2021/10/03 13:56:30;;;;;;;10.03;5.92;;;;;;;18.65;74.91;98773.23;2229639;80;21036;-87